Time;durP1;ratioP1;P1;durP2;ratioP2;P2;SDS_P1;SDS_P2;PMS_P1;PMS_P2;Temp;Humidity;BMP_temperature;BMP_pressure;BME280_temperature;BME280_humidity;BME280_pressure;Samples;Min_cycle;Max_cycle;Signal;HPM_P1;HPM_P2
2022/12/23 00:00:24;;;;;;;126.70;42.35;;;7.90;99.90;;;;;;5051463;28;20080;-56
2022/12/23 00:02:51;;;;;;;122.43;41.92;;;7.90;99.90;;;;;;5049564;28;20089;-57
2022/12/23 00:05:17;;;;;;;107.55;40.17;;;7.90;99.90;;;;;;5054715;28;20085;-59
2022/12/23 00:07:44;;;;;;;76.45;37.90;;;7.90;99.90;;;;;;5047857;28;20136;-50
2022/12/23 00:10:11;;;;;;;127.85;39.05;;;7.90;99.90;;;;;;5048939;28;20080;-53
2022/12/23 00:15:23;;;;;;;78.85;37.75;;;7.90;99.90;;;;;;5051307;28;20049;-57
2022/12/23 00:17:50;;;;;;;103.10;39.97;;;7.90;99.90;;;;;;5052739;28;20088;-60
2022/12/23 00:20:17;;;;;;;83.70;37.17;;;7.90;99.90;;;;;;5054326;28;20048;-61
2022/12/23 00:25:41;;;;;;;84.13;38.22;;;7.90;99.90;;;;;;5050190;28;20065;-61
2022/12/23 00:28:10;;;;;;;79.72;35.28;;;7.90;99.90;;;;;;5050902;28;20486;-59
2022/12/23 00:30:38;;;;;;;92.80;39.83;;;7.90;99.90;;;;;;5047624;28;20394;-58
2022/12/23 00:33:05;;;;;;;78.82;37.30;;;7.90;99.90;;;;;;5053083;28;20528;-55
2022/12/23 00:35:32;;;;;;;71.03;32.95;;;7.90;99.90;;;;;;5050603;28;20115;-56
2022/12/23 00:37:59;;;;;;;73.38;35.92;;;7.90;99.90;;;;;;5050913;28;20103;-54
2022/12/23 00:43:10;;;;;;;83.22;37.38;;;7.90;99.90;;;;;;5047310;28;20052;-52
2022/12/23 00:45:38;;;;;;;145.40;42.80;;;7.90;99.90;;;;;;5052065;28;20497;-55
2022/12/23 00:50:51;;;;;;;73.55;35.65;;;7.90;99.90;;;;;;5047677;28;20501;-56
2022/12/23 00:53:17;;;;;;;74.55;35.85;;;7.90;99.90;;;;;;5052194;28;20053;-51
2022/12/23 00:55:46;;;;;;;87.03;39.17;;;7.90;99.90;;;;;;5052073;28;20080;-54
2022/12/23 00:58:13;;;;;;;67.63;33.60;;;7.90;99.90;;;;;;5051791;28;20533;-55
2022/12/23 01:06:10;;;;;;;73.53;35.38;;;7.90;99.90;;;;;;5048639;28;20053;-57
2022/12/23 01:08:37;;;;;;;75.13;36.08;;;7.90;99.90;;;;;;5049158;28;20136;-57
2022/12/23 01:11:04;;;;;;;86.65;39.33;;;7.90;99.90;;;;;;5047966;28;20049;-55
2022/12/23 01:13:30;;;;;;;74.72;33.85;;;7.90;99.90;;;;;;5048950;28;20131;-53
2022/12/23 01:16:01;;;;;;;94.85;39.33;;;7.90;99.90;;;;;;5049422;28;20131;-51
2022/12/23 01:18:28;;;;;;;129.67;42.13;;;7.90;99.90;;;;;;5043789;28;20107;-54
2022/12/23 01:20:55;;;;;;;79.88;36.17;;;7.80;99.90;;;;;;5048940;28;20098;-56
2022/12/23 01:23:21;;;;;;;106.18;39.90;;;7.80;99.90;;;;;;5048478;28;20568;-54
2022/12/23 01:25:56;;;;;;;80.55;37.38;;;7.80;99.90;;;;;;5048504;28;20076;-54
2022/12/23 01:28:23;;;;;;;90.72;36.58;;;7.80;99.90;;;;;;5048432;28;20057;-54
2022/12/23 01:30:49;;;;;;;104.32;39.88;;;7.80;99.90;;;;;;5051352;28;20214;-54
2022/12/23 01:33:17;;;;;;;113.22;39.88;;;7.90;99.90;;;;;;5050611;28;20440;-54
2022/12/23 01:35:44;;;;;;;106.50;37.17;;;7.80;99.90;;;;;;5050552;28;20076;-53
2022/12/23 01:38:11;;;;;;;93.82;39.10;;;7.80;99.90;;;;;;5044068;28;20484;-54
2022/12/23 01:40:39;;;;;;;89.97;38.28;;;7.80;99.90;;;;;;5049770;28;20099;-53
2022/12/23 01:43:05;;;;;;;80.22;35.47;;;7.80;99.90;;;;;;5049268;28;20114;-47
2022/12/23 01:45:32;;;;;;;77.00;34.45;;;7.80;99.90;;;;;;5047513;28;20057;-54
2022/12/23 01:48:00;;;;;;;213.20;45.70;;;7.80;99.90;;;;;;5049432;28;20342;-55
2022/12/23 01:50:30;;;;;;;79.57;33.60;;;7.80;99.90;;;;;;5049994;28;20056;-58
2022/12/23 01:52:59;;;;;;;98.03;38.50;;;7.80;99.90;;;;;;5049722;28;20448;-55
2022/12/23 01:55:27;;;;;;;72.43;34.72;;;7.90;99.90;;;;;;5050074;28;20378;-55
2022/12/23 01:57:54;;;;;;;87.43;37.85;;;7.80;99.90;;;;;;5048326;28;20076;-49
2022/12/23 02:05:51;;;;;;;69.40;33.22;;;7.80;99.90;;;;;;5049772;28;20139;-54
2022/12/23 02:11:21;;;;;;;78.60;35.58;;;7.80;99.90;;;;;;5008904;28;20076;-52
2022/12/23 02:16:32;;;;;;;88.35;38.08;;;7.90;99.90;;;;;;5043297;28;20170;-53
2022/12/23 02:19:05;;;;;;;94.30;39.25;;;7.90;99.90;;;;;;5051123;28;20053;-54
2022/12/23 02:21:47;;;;;;;106.25;39.72;;;7.90;99.90;;;;;;5050457;28;20088;-53
2022/12/23 02:24:31;;;;;;;;;;;7.90;99.90;;;;;;5052125;28;20061;-55
2022/12/23 02:27:15;;;;;;;72.90;34.47;;;7.80;99.90;;;;;;5044578;28;19971;-55
2022/12/23 02:30:04;;;;;;;94.60;38.53;;;7.80;99.90;;;;;;5050660;28;20114;-56
2022/12/23 02:32:43;;;;;;;83.35;37.20;;;7.80;99.90;;;;;;5045412;28;20084;-57
2022/12/23 02:35:12;;;;;;;85.72;37.55;;;7.80;99.90;;;;;;5049405;28;20177;-57
2022/12/23 02:37:42;;;;;;;75.25;34.88;;;7.80;99.90;;;;;;5049055;28;20184;-62
2022/12/23 02:40:12;;;;;;;72.57;33.58;;;7.80;99.90;;;;;;5052494;28;20056;-62
2022/12/23 02:42:41;;;;;;;81.72;34.05;;;7.90;99.90;;;;;;5047987;28;20103;-64
2022/12/23 02:45:09;;;;;;;62.17;32.05;;;7.80;99.90;;;;;;5049193;28;20136;-60
2022/12/23 02:47:39;;;;;;;79.63;33.97;;;7.90;99.90;;;;;;5048192;28;20081;-56
2022/12/23 02:50:09;;;;;;;60.60;30.50;;;7.90;99.90;;;;;;5047464;28;20115;-56
2022/12/23 02:52:36;;;;;;;80.18;35.33;;;7.90;99.90;;;;;;5050028;28;20122;-57
2022/12/23 02:55:05;;;;;;;62.50;30.90;;;7.90;99.90;;;;;;5049544;28;20087;-56
2022/12/23 02:57:34;;;;;;;65.95;32.00;;;7.90;99.90;;;;;;5050007;28;20522;-50
2022/12/23 03:00:01;;;;;;;73.25;32.05;;;7.90;99.90;;;;;;5050664;28;20122;-55
2022/12/23 03:02:28;;;;;;;64.80;30.27;;;7.90;99.90;;;;;;5055078;28;20489;-53
2022/12/23 03:04:56;;;;;;;68.13;32.25;;;7.90;99.90;;;;;;5052347;28;20041;-50
2022/12/23 03:07:26;;;;;;;66.20;32.60;;;7.90;99.90;;;;;;5052551;28;20053;-51
2022/12/23 03:09:57;;;;;;;86.18;34.00;;;7.90;99.90;;;;;;5051870;28;20092;-54
2022/12/23 03:12:30;;;;;;;59.80;29.70;;;7.90;99.90;;;;;;5054475;28;20045;-54
2022/12/23 03:15:08;;;;;;;72.78;32.10;;;7.80;99.90;;;;;;5051415;28;20064;-55
2022/12/23 03:17:40;;;;;;;68.40;33.00;;;7.80;99.90;;;;;;5051694;28;20041;-54
2022/12/23 03:20:12;;;;;;;;;;;7.80;99.90;;;;;;5049497;28;20127;-56
2022/12/23 03:22:40;;;;;;;63.17;29.17;;;7.80;99.90;;;;;;5053797;28;19986;-50
2022/12/23 03:25:10;;;;;;;107.40;36.47;;;7.80;99.90;;;;;;5052598;28;20404;-54
2022/12/23 03:27:39;;;;;;;79.40;34.05;;;7.80;99.90;;;;;;5052414;28;20081;-53
2022/12/23 03:30:07;;;;;;;89.40;34.30;;;7.80;99.90;;;;;;5052680;28;20132;-52
2022/12/23 03:32:35;;;;;;;93.00;33.45;;;7.80;99.90;;;;;;5052786;28;20130;-50
2022/12/23 03:35:02;;;;;;;80.63;31.70;;;7.80;99.90;;;;;;5053935;28;20056;-53
2022/12/23 03:37:32;;;;;;;82.90;32.53;;;7.90;99.90;;;;;;5053377;28;20091;-52
2022/12/23 03:40:01;;;;;;;80.35;32.80;;;7.80;99.90;;;;;;5053241;28;20041;-51
2022/12/23 03:42:29;;;;;;;98.47;33.25;;;7.80;99.90;;;;;;5053520;28;20076;-50
2022/12/23 03:44:56;;;;;;;72.30;30.23;;;7.80;99.90;;;;;;5052197;28;20085;-54
2022/12/23 03:47:24;;;;;;;115.65;33.88;;;7.80;99.90;;;;;;5053845;28;20080;-51
2022/12/23 03:49:53;;;;;;;80.50;30.45;;;7.80;99.90;;;;;;5053201;28;20132;-54
2022/12/23 03:52:21;;;;;;;85.50;30.15;;;7.90;99.90;;;;;;5054125;28;20053;-53
2022/12/23 03:54:51;;;;;;;62.88;26.80;;;7.80;99.90;;;;;;5052649;28;20101;-55
2022/12/23 03:57:18;;;;;;;62.38;26.58;;;7.80;99.90;;;;;;5052001;28;20057;-53
2022/12/23 03:59:45;;;;;;;63.75;26.98;;;7.80;99.90;;;;;;5053199;28;20048;-55
2022/12/23 04:02:15;;;;;;;65.13;26.50;;;7.80;99.90;;;;;;5052456;28;20433;-53
2022/12/23 04:05:04;;;;;;;59.83;25.75;;;7.80;99.90;;;;;;5049782;28;20076;-56
2022/12/23 04:07:31;;;;;;;65.93;26.52;;;7.80;99.90;;;;;;5052434;28;20136;-54
2022/12/23 04:09:59;;;;;;;56.47;24.20;;;7.90;99.90;;;;;;5052709;28;20460;-47
2022/12/23 04:12:28;;;;;;;67.70;25.42;;;7.90;99.90;;;;;;5053006;28;20077;-51
2022/12/23 04:14:55;;;;;;;72.28;26.15;;;7.90;99.90;;;;;;5052881;28;20152;-54
2022/12/23 04:17:21;;;;;;;74.70;26.42;;;7.80;99.90;;;;;;5051119;28;20136;-53
2022/12/23 04:19:49;;;;;;;69.10;27.33;;;7.80;99.90;;;;;;5048146;28;20106;-48
2022/12/23 04:22:16;;;;;;;75.25;26.02;;;7.80;99.90;;;;;;5053437;28;20053;-54
2022/12/23 04:24:43;;;;;;;58.92;23.92;;;7.80;99.90;;;;;;5052077;28;20514;-56
2022/12/23 04:27:12;;;;;;;54.40;23.77;;;7.80;99.90;;;;;;5049000;28;20080;-55
2022/12/23 04:29:38;;;;;;;71.00;26.85;;;7.80;99.90;;;;;;5053705;28;20076;-56
2022/12/23 04:32:06;;;;;;;68.68;23.90;;;7.80;99.90;;;;;;5051059;28;20131;-51
2022/12/23 04:34:32;;;;;;;65.32;24.25;;;7.80;99.90;;;;;;5052151;28;20169;-52
2022/12/23 04:36:59;;;;;;;75.18;23.80;;;7.80;99.90;;;;;;5051232;28;20128;-50
2022/12/23 04:39:26;;;;;;;66.40;25.20;;;7.80;99.90;;;;;;5052067;28;20131;-54
2022/12/23 04:41:53;;;;;;;62.92;25.23;;;7.80;99.90;;;;;;5052865;28;20084;-54
2022/12/23 04:44:21;;;;;;;66.75;24.33;;;7.80;99.90;;;;;;5042572;28;20456;-52
2022/12/23 04:46:48;;;;;;;62.42;22.80;;;7.80;99.90;;;;;;5050623;28;20080;-56
2022/12/23 04:49:14;;;;;;;53.17;22.00;;;7.80;99.90;;;;;;5050285;28;20500;-53
2022/12/23 04:51:41;;;;;;;68.80;25.02;;;7.80;99.90;;;;;;5047177;28;20048;-54
2022/12/23 04:54:08;;;;;;;54.45;23.00;;;7.80;99.90;;;;;;5045745;28;20087;-48
2022/12/23 04:56:35;;;;;;;47.47;20.73;;;7.80;99.90;;;;;;5048731;28;20126;-52
2022/12/23 04:59:03;;;;;;;54.47;20.60;;;7.80;99.90;;;;;;5048327;28;20092;-55
2022/12/23 05:01:31;;;;;;;55.92;21.77;;;7.80;99.90;;;;;;5050619;28;20071;-54
2022/12/23 05:03:58;;;;;;;66.47;22.95;;;7.80;99.90;;;;;;5050030;28;20501;-52
2022/12/23 05:06:24;;;;;;;51.95;21.98;;;7.80;99.90;;;;;;5048886;28;20041;-54
2022/12/23 05:08:51;;;;;;;53.63;22.00;;;7.80;99.90;;;;;;5052656;28;20057;-55
2022/12/23 05:11:18;;;;;;;49.40;19.90;;;7.80;99.90;;;;;;5052707;28;20084;-54
2022/12/23 05:13:45;;;;;;;57.45;21.02;;;7.80;99.90;;;;;;5050697;28;20125;-55
2022/12/23 05:16:11;;;;;;;55.63;22.05;;;7.70;99.90;;;;;;5051511;28;20093;-55
2022/12/23 05:18:40;;;;;;;70.97;24.40;;;7.80;99.90;;;;;;5046932;28;20082;-43
2022/12/23 05:21:06;;;;;;;61.17;22.58;;;7.80;99.90;;;;;;5050420;28;20138;-52
2022/12/23 05:23:33;;;;;;;67.25;23.92;;;7.80;99.90;;;;;;5051364;28;20508;-54
2022/12/23 05:26:00;;;;;;;66.20;24.15;;;7.70;99.90;;;;;;5050960;28;20049;-55
2022/12/23 05:28:27;;;;;;;71.35;24.60;;;7.70;99.90;;;;;;5052161;28;20132;-52
2022/12/23 05:30:58;;;;;;;64.28;22.83;;;7.70;99.90;;;;;;5051086;28;20126;-53
2022/12/23 05:33:25;;;;;;;71.28;22.13;;;7.70;99.90;;;;;;5051373;28;20147;-53
2022/12/23 05:35:53;;;;;;;60.55;22.92;;;7.70;99.90;;;;;;5055412;28;20497;-54
2022/12/23 05:38:20;;;;;;;98.07;24.88;;;7.70;99.90;;;;;;5034560;28;20084;-52
2022/12/23 05:40:47;;;;;;;78.68;24.88;;;7.70;99.90;;;;;;5041537;28;20076;-54
2022/12/23 05:43:13;;;;;;;58.85;21.65;;;7.70;99.90;;;;;;5050548;28;20111;-51
2022/12/23 05:45:40;;;;;;;62.50;20.83;;;7.60;99.90;;;;;;5048063;28;20082;-51
2022/12/23 05:48:07;;;;;;;89.05;22.98;;;7.60;99.90;;;;;;5046304;28;20488;-47
2022/12/23 05:50:34;;;;;;;223.57;27.27;;;7.60;99.90;;;;;;5048741;28;20110;-48
2022/12/23 05:53:02;;;;;;;87.82;22.45;;;7.60;99.90;;;;;;5047051;28;20132;-47
2022/12/23 05:55:29;;;;;;;216.02;23.58;;;7.60;99.90;;;;;;5047184;28;20136;-52
2022/12/23 05:57:55;;;;;;;204.50;23.00;;;7.60;99.90;;;;;;5049227;28;20088;-50
2022/12/23 06:00:22;;;;;;;259.73;23.05;;;7.60;99.90;;;;;;5050879;28;21388;-54
2022/12/23 06:02:49;;;;;;;255.05;22.90;;;7.60;99.90;;;;;;5058130;28;20072;-52
2022/12/23 06:05:16;;;;;;;244.85;24.58;;;7.60;99.90;;;;;;5055269;28;20052;-52
2022/12/23 06:07:43;;;;;;;298.70;24.90;;;7.60;99.90;;;;;;5053352;28;20099;-54
2022/12/23 06:10:11;;;;;;;397.33;25.40;;;7.60;99.90;;;;;;5052029;28;20106;-53
2022/12/23 06:12:38;;;;;;;116.45;20.98;;;7.60;99.90;;;;;;5049933;28;20469;-54
2022/12/23 06:15:05;;;;;;;81.18;18.40;;;7.60;99.90;;;;;;5050355;28;20061;-53
2022/12/23 06:17:32;;;;;;;282.23;22.95;;;7.60;99.90;;;;;;5046965;28;20486;-53
2022/12/23 06:19:59;;;;;;;285.35;22.27;;;7.50;99.90;;;;;;5050705;28;20092;-55
2022/12/23 06:22:26;;;;;;;278.85;21.58;;;7.50;99.90;;;;;;5049901;28;20136;-47
2022/12/23 06:24:53;;;;;;;376.80;25.63;;;7.50;99.90;;;;;;5050815;28;20084;-54
2022/12/23 06:27:21;;;;;;;123.15;21.23;;;7.50;99.90;;;;;;5046061;28;20076;-54
2022/12/23 06:29:48;;;;;;;129.18;19.90;;;7.50;99.90;;;;;;5050367;28;20080;-54
2022/12/23 06:32:14;;;;;;;130.48;21.67;;;7.50;99.90;;;;;;5050069;28;20562;-55
2022/12/23 06:34:41;;;;;;;93.05;18.77;;;7.50;99.90;;;;;;5054701;28;20108;-50
2022/12/23 06:37:08;;;;;;;205.85;22.40;;;7.50;99.90;;;;;;5053862;28;20080;-54
2022/12/23 06:39:35;;;;;;;245.57;24.63;;;7.50;99.90;;;;;;5055162;28;20577;-54
2022/12/23 06:42:02;;;;;;;134.38;20.60;;;7.50;99.90;;;;;;5054450;28;20076;-55
2022/12/23 06:44:30;;;;;;;210.63;22.70;;;7.50;99.90;;;;;;5052138;28;20044;-54
2022/12/23 06:46:57;;;;;;;199.70;23.33;;;7.60;99.90;;;;;;5054647;28;20048;-54
2022/12/23 06:49:23;;;;;;;115.50;22.05;;;7.50;99.90;;;;;;5055165;28;20080;-55
2022/12/23 06:51:50;;;;;;;158.13;21.95;;;7.50;99.90;;;;;;5053997;28;20556;-49
2022/12/23 06:54:17;;;;;;;206.70;23.67;;;7.50;99.90;;;;;;5049249;28;20045;-53
2022/12/23 06:56:44;;;;;;;85.45;19.35;;;7.50;99.90;;;;;;5053740;28;20099;-54
2022/12/23 06:59:11;;;;;;;199.45;23.17;;;7.50;99.90;;;;;;5050761;28;20136;-48
2022/12/23 07:01:39;;;;;;;51.03;18.77;;;7.50;99.90;;;;;;5048781;28;20048;-54
2022/12/23 07:04:06;;;;;;;147.52;21.83;;;7.50;99.90;;;;;;5050487;28;20392;-49
2022/12/23 07:06:33;;;;;;;76.28;19.27;;;7.50;99.90;;;;;;5052753;28;20049;-54
2022/12/23 07:08:59;;;;;;;45.78;17.13;;;7.50;99.90;;;;;;5054042;28;20455;-52
2022/12/23 07:11:26;;;;;;;82.72;19.67;;;7.50;99.90;;;;;;5054061;28;20056;-54
2022/12/23 07:13:53;;;;;;;66.88;18.67;;;7.50;99.90;;;;;;5052070;28;20568;-51
2022/12/23 07:16:20;;;;;;;71.97;19.77;;;7.40;99.90;;;;;;5040417;28;20490;-50
2022/12/23 07:18:48;;;;;;;96.95;21.00;;;7.40;99.90;;;;;;5050932;28;20080;-47
2022/12/23 07:21:15;;;;;;;113.97;22.45;;;7.50;99.90;;;;;;5049991;28;20501;-55
2022/12/23 07:23:41;;;;;;;137.02;24.15;;;7.40;99.90;;;;;;5052137;28;20089;-52
2022/12/23 07:26:08;;;;;;;90.22;21.80;;;7.50;99.90;;;;;;5050001;28;20053;-43
2022/12/23 07:28:35;;;;;;;135.90;23.05;;;7.40;99.90;;;;;;5049604;28;20084;-52
2022/12/23 07:31:05;;;;;;;106.10;22.13;;;7.40;99.90;;;;;;5050605;28;20469;-51
2022/12/23 07:33:32;;;;;;;51.28;18.88;;;7.40;99.90;;;;;;5051301;28;20555;-53
2022/12/23 07:36:00;;;;;;;80.07;20.17;;;7.40;99.90;;;;;;5052095;28;20053;-48
2022/12/23 07:38:27;;;;;;;207.40;22.35;;;7.40;99.90;;;;;;5048084;28;20454;-53
2022/12/23 07:40:54;;;;;;;159.07;23.88;;;7.40;99.90;;;;;;5051085;28;20158;-54
2022/12/23 07:43:20;;;;;;;129.85;23.95;;;7.40;99.90;;;;;;5052648;28;20083;-52
2022/12/23 07:45:47;;;;;;;108.30;23.02;;;7.40;99.90;;;;;;5051119;28;20136;-42
2022/12/23 07:48:14;;;;;;;142.43;22.25;;;7.40;99.90;;;;;;5049971;28;20455;-53
2022/12/23 07:50:41;;;;;;;52.42;18.90;;;7.40;99.90;;;;;;5047374;28;20115;-48
2022/12/23 07:53:09;;;;;;;185.45;26.50;;;7.40;99.90;;;;;;5050272;28;20135;-50
2022/12/23 07:55:36;;;;;;;125.25;21.17;;;7.40;99.90;;;;;;5047161;28;20505;-51
2022/12/23 07:58:02;;;;;;;109.78;22.77;;;7.40;99.90;;;;;;5048903;28;20451;-54
2022/12/23 08:00:29;;;;;;;82.88;24.10;;;7.40;99.90;;;;;;5051592;28;20049;-54
2022/12/23 08:02:56;;;;;;;73.10;21.63;;;7.40;99.90;;;;;;5048495;28;20501;-49
2022/12/23 08:05:23;;;;;;;61.80;20.38;;;7.40;99.90;;;;;;5051261;28;20045;-56
2022/12/23 08:07:51;;;;;;;40.75;16.95;;;7.40;99.90;;;;;;5046014;28;20140;-53
2022/12/23 08:10:19;;;;;;;82.45;22.35;;;7.40;99.90;;;;;;5048994;28;20154;-52
2022/12/23 08:12:46;;;;;;;124.05;23.05;;;7.40;99.90;;;;;;5050716;28;20401;-51
2022/12/23 08:15:13;;;;;;;93.95;25.02;;;7.40;99.90;;;;;;5051357;28;20057;-51
2022/12/23 08:17:39;;;;;;;97.18;23.10;;;7.40;99.90;;;;;;5046176;28;20451;-51
2022/12/23 08:20:08;;;;;;;82.35;26.30;;;7.40;99.90;;;;;;5048794;28;20052;-53
2022/12/23 08:22:35;;;;;;;83.82;23.38;;;7.40;99.90;;;;;;5050902;28;20128;-50
2022/12/23 08:25:01;;;;;;;57.65;21.45;;;7.40;99.90;;;;;;5048997;28;20451;-45
2022/12/23 08:27:30;;;;;;;51.35;19.85;;;7.40;99.90;;;;;;5050854;28;20048;-54
2022/12/23 08:29:56;;;;;;;56.63;20.58;;;7.40;99.90;;;;;;5045612;28;20107;-49
2022/12/23 08:32:26;;;;;;;63.90;21.67;;;7.40;99.90;;;;;;5048690;28;20144;-54
2022/12/23 08:34:52;;;;;;;82.75;24.75;;;7.50;99.90;;;;;;5049389;28;20081;-50
2022/12/23 08:37:19;;;;;;;116.32;27.58;;;7.50;99.90;;;;;;5050192;28;20045;-49
2022/12/23 08:39:46;;;;;;;81.60;23.77;;;7.50;99.90;;;;;;5047752;28;20092;-53
2022/12/23 08:42:13;;;;;;;165.63;22.88;;;7.40;99.90;;;;;;5052215;28;20590;-55
2022/12/23 08:44:41;;;;;;;141.88;26.05;;;7.50;99.90;;;;;;5050303;28;20056;-53
2022/12/23 08:47:08;;;;;;;115.25;24.73;;;7.40;99.90;;;;;;5048280;28;20040;-53
2022/12/23 08:49:35;;;;;;;90.07;23.42;;;7.40;99.90;;;;;;5048332;28;20451;-55
2022/12/23 08:52:02;;;;;;;127.38;23.80;;;7.60;99.90;;;;;;5041693;28;20056;-56
2022/12/23 08:54:29;;;;;;;104.50;21.92;;;7.40;99.90;;;;;;5048111;28;20053;-53
2022/12/23 08:56:56;;;;;;;98.68;21.85;;;7.40;99.90;;;;;;5050820;28;20092;-48
2022/12/23 08:59:23;;;;;;;60.42;20.42;;;7.40;99.90;;;;;;5049889;28;20583;-52
2022/12/23 09:01:51;;;;;;;82.47;22.38;;;7.50;99.90;;;;;;5049184;28;20068;-53
2022/12/23 09:04:18;;;;;;;56.50;19.92;;;7.50;99.90;;;;;;5049105;28;20519;-51
2022/12/23 09:06:45;;;;;;;93.55;22.25;;;7.50;99.90;;;;;;5052591;28;20110;-47
2022/12/23 09:09:13;;;;;;;101.20;21.70;;;7.50;99.90;;;;;;5051435;28;20057;-48
2022/12/23 09:11:39;;;;;;;48.88;19.67;;;7.50;99.90;;;;;;5047537;28;20485;-48
2022/12/23 09:14:07;;;;;;;64.75;22.45;;;7.50;99.90;;;;;;5049047;28;20061;-55
2022/12/23 09:16:34;;;;;;;66.88;22.10;;;7.50;99.90;;;;;;5050889;28;20372;-48
2022/12/23 09:19:02;;;;;;;54.90;20.25;;;7.50;99.90;;;;;;5049634;28;20053;-51
2022/12/23 09:21:29;;;;;;;55.40;19.42;;;7.50;99.90;;;;;;5049209;28;20080;-49
2022/12/23 09:23:56;;;;;;;66.25;20.48;;;7.70;99.90;;;;;;5048896;28;20059;-51
2022/12/23 09:26:23;;;;;;;61.08;21.35;;;7.60;99.90;;;;;;5050535;28;20048;-54
2022/12/23 09:28:50;;;;;;;63.25;21.20;;;7.60;99.90;;;;;;5047645;28;20103;-54
2022/12/23 09:31:17;;;;;;;60.20;22.08;;;7.60;99.90;;;;;;5050811;28;20095;-49
2022/12/23 09:33:46;;;;;;;60.83;23.98;;;7.60;99.90;;;;;;5051974;28;20097;-50
2022/12/23 09:36:14;;;;;;;92.13;25.60;;;7.70;99.90;;;;;;5047945;28;20083;-53
2022/12/23 09:38:41;;;;;;;68.47;23.10;;;7.70;99.90;;;;;;5046735;28;20462;-53
2022/12/23 09:41:12;;;;;;;55.28;19.88;;;7.70;99.90;;;;;;5048922;28;20104;-54
2022/12/23 09:43:42;;;;;;;53.83;18.90;;;7.70;99.90;;;;;;5048749;28;20684;-51
2022/12/23 09:46:12;;;;;;;54.33;18.75;;;7.70;99.90;;;;;;5051008;28;20438;-51
2022/12/23 09:48:41;;;;;;;48.70;17.65;;;7.80;99.90;;;;;;5046614;28;20096;-56
2022/12/23 09:51:09;;;;;;;48.55;17.63;;;7.80;99.90;;;;;;5049611;28;20056;-55
2022/12/23 09:53:44;;;;;;;44.53;18.00;;;7.80;99.90;;;;;;5045910;28;20084;-54
2022/12/23 09:56:16;;;;;;;69.90;21.63;;;7.80;99.90;;;;;;5046588;28;20158;-52
2022/12/23 09:58:43;;;;;;;;;;;7.80;99.90;;;;;;5051154;28;20111;-51
2022/12/23 10:01:14;;;;;;;64.53;19.42;;;7.80;99.90;;;;;;5049518;28;19972;-54
2022/12/23 10:03:54;;;;;;;67.15;20.73;;;7.80;99.90;;;;;;5051274;28;20111;-53
2022/12/23 10:06:23;;;;;;;50.17;18.50;;;7.80;99.90;;;;;;5049697;28;20053;-55
2022/12/23 10:08:52;;;;;;;47.05;17.73;;;7.80;99.90;;;;;;5048288;28;20485;-54
2022/12/23 10:11:21;;;;;;;63.03;20.05;;;7.80;99.90;;;;;;5044070;28;20041;-53
2022/12/23 10:13:49;;;;;;;49.85;18.30;;;7.80;99.90;;;;;;5045698;28;20136;-47
2022/12/23 10:16:17;;;;;;;57.50;18.98;;;7.80;99.90;;;;;;5042491;28;20087;-51
2022/12/23 10:18:48;;;;;;;54.92;19.02;;;7.80;99.90;;;;;;5057494;28;20052;-49
2022/12/23 10:21:18;;;;;;;42.95;18.15;;;7.90;99.90;;;;;;5058254;28;20080;-52
2022/12/23 10:23:48;;;;;;;49.25;18.20;;;7.90;99.90;;;;;;5048524;28;20447;-52
2022/12/23 10:26:20;;;;;;;56.85;18.15;;;7.90;99.90;;;;;;5050018;28;20088;-55
2022/12/23 10:28:46;;;;;;;50.22;18.55;;;7.90;99.90;;;;;;5049575;28;20059;-53
2022/12/23 10:31:17;;;;;;;45.70;18.48;;;7.90;99.90;;;;;;5046288;28;20489;-51
2022/12/23 10:33:46;;;;;;;41.70;16.92;;;7.90;99.90;;;;;;5056929;28;20087;-44
2022/12/23 10:36:15;;;;;;;49.85;18.75;;;7.90;99.90;;;;;;5049466;28;20085;-55
2022/12/23 10:38:47;;;;;;;48.13;17.52;;;7.90;99.90;;;;;;5047766;28;20110;-55
2022/12/23 10:41:21;;;;;;;38.50;16.17;;;7.90;99.90;;;;;;5047294;28;20052;-54
2022/12/23 10:44:08;;;;;;;38.30;17.23;;;7.90;99.90;;;;;;5038361;28;20540;-53
2022/12/23 10:46:38;;;;;;;53.22;18.10;;;8.00;99.90;;;;;;5047396;28;20057;-55
2022/12/23 10:49:10;;;;;;;52.97;18.00;;;8.00;99.90;;;;;;5050220;28;20081;-52
2022/12/23 10:51:43;;;;;;;46.15;17.23;;;8.00;99.90;;;;;;5046316;28;20132;-52
2022/12/23 10:54:11;;;;;;;44.95;17.00;;;8.00;99.90;;;;;;5047298;28;20148;-47
2022/12/23 10:56:39;;;;;;;42.70;17.00;;;8.00;99.90;;;;;;5049722;28;20141;-54
2022/12/23 10:59:06;;;;;;;50.78;17.60;;;8.00;99.90;;;;;;5047304;28;20053;-55
2022/12/23 11:01:33;;;;;;;52.63;18.20;;;8.00;99.90;;;;;;5046722;28;20133;-52
2022/12/23 11:04:04;;;;;;;51.40;19.38;;;8.10;99.90;;;;;;5044547;28;20073;-55
2022/12/23 11:06:31;;;;;;;49.78;18.35;;;8.00;99.90;;;;;;5042920;28;20076;-51
2022/12/23 11:08:58;;;;;;;40.53;17.60;;;8.10;99.90;;;;;;5049292;28;20110;-51
2022/12/23 11:11:24;;;;;;;54.17;17.13;;;8.10;99.90;;;;;;5048294;28;20083;-54
2022/12/23 11:13:53;;;;;;;48.92;17.70;;;8.10;99.90;;;;;;5049669;28;20114;-54
2022/12/23 11:16:22;;;;;;;46.60;17.45;;;8.10;99.90;;;;;;5051987;28;20084;-54
2022/12/23 11:18:58;;;;;;;44.65;16.48;;;8.10;99.90;;;;;;5051417;28;20049;-55
2022/12/23 11:21:24;;;;;;;39.22;15.88;;;8.20;99.90;;;;;;5054273;28;20080;-51
2022/12/23 11:24:06;;;;;;;39.47;15.40;;;8.20;99.90;;;;;;5053939;28;20525;-54
2022/12/23 11:26:33;;;;;;;42.05;16.42;;;8.30;99.90;;;;;;5055502;28;20048;-55
2022/12/23 11:29:04;;;;;;;39.25;16.00;;;8.20;99.90;;;;;;5054707;28;20091;-55
2022/12/23 11:31:34;;;;;;;36.63;14.90;;;8.10;99.90;;;;;;5055243;28;20133;-53
2022/12/23 11:34:01;;;;;;;33.83;14.20;;;8.20;99.90;;;;;;5054306;28;20448;-50
2022/12/23 11:36:28;;;;;;;34.20;14.40;;;8.20;99.90;;;;;;5052514;28;20052;-51
2022/12/23 11:39:00;;;;;;;34.05;14.18;;;8.20;99.90;;;;;;5054982;28;20080;-55
2022/12/23 11:41:28;;;;;;;35.47;14.48;;;8.20;99.90;;;;;;5054313;28;20531;-52
2022/12/23 11:43:56;;;;;;;31.60;13.70;;;8.10;99.90;;;;;;5053300;28;20064;-55
2022/12/23 11:46:27;;;;;;;33.78;14.45;;;8.20;99.90;;;;;;5053042;28;20093;-53
2022/12/23 11:49:14;;;;;;;29.73;14.25;;;8.20;99.90;;;;;;5044817;28;20053;-55
2022/12/23 11:51:41;;;;;;;33.10;14.45;;;8.20;99.90;;;;;;5053888;28;20136;-53
2022/12/23 11:54:14;;;;;;;29.70;13.82;;;8.20;99.90;;;;;;5053225;28;20344;-54
2022/12/23 11:56:41;;;;;;;29.77;13.30;;;8.20;99.90;;;;;;5053669;28;20496;-55
2022/12/23 11:59:09;;;;;;;30.75;14.43;;;8.20;99.90;;;;;;5052454;28;20128;-52
2022/12/23 12:01:38;;;;;;;35.85;15.48;;;8.20;99.90;;;;;;5051025;28;20131;-55
2022/12/23 12:04:07;;;;;;;32.92;14.48;;;8.30;99.90;;;;;;5051654;28;20052;-56
2022/12/23 12:06:34;;;;;;;33.38;14.90;;;8.30;99.90;;;;;;5054884;28;20091;-54
2022/12/23 12:09:01;;;;;;;31.42;13.80;;;8.30;99.90;;;;;;5054914;28;20480;-52
2022/12/23 12:11:31;;;;;;;31.92;14.70;;;8.30;99.90;;;;;;5052670;28;20045;-55
2022/12/23 12:13:59;;;;;;;30.40;14.65;;;8.30;99.90;;;;;;5053610;28;20080;-54
2022/12/23 12:16:39;;;;;;;28.23;13.52;;;8.30;99.90;;;;;;5054901;28;20084;-53
2022/12/23 12:19:11;;;;;;;30.45;14.27;;;8.30;99.90;;;;;;5051266;28;20084;-54
2022/12/23 12:21:38;;;;;;;36.38;14.68;;;8.30;99.90;;;;;;5052955;28;20492;-54
2022/12/23 12:24:06;;;;;;;34.85;15.77;;;8.30;99.90;;;;;;5050490;28;20106;-53
2022/12/23 12:26:35;;;;;;;38.25;15.50;;;8.20;99.90;;;;;;5045545;28;20511;-53
2022/12/23 12:29:09;;;;;;;38.85;16.50;;;8.20;99.90;;;;;;5051590;28;20466;-53
2022/12/23 12:31:39;;;;;;;33.58;15.52;;;8.20;99.90;;;;;;5052278;28;20141;-55
2022/12/23 12:34:14;;;;;;;35.40;15.27;;;8.20;99.90;;;;;;5051549;28;20098;-54
2022/12/23 12:36:43;;;;;;;38.42;15.73;;;8.20;99.90;;;;;;5053491;28;20444;-47
2022/12/23 12:39:12;;;;;;;33.25;15.10;;;8.20;99.90;;;;;;5052751;28;20053;-53
2022/12/23 12:41:40;;;;;;;31.92;15.10;;;8.20;99.90;;;;;;5053133;28;20098;-50
2022/12/23 12:44:12;;;;;;;31.65;13.88;;;8.20;99.90;;;;;;5052665;28;20076;-55
2022/12/23 12:46:42;;;;;;;37.05;14.38;;;8.20;99.90;;;;;;5052591;28;20053;-55
2022/12/23 12:49:12;;;;;;;33.60;15.07;;;8.20;99.90;;;;;;5049678;28;20223;-53
2022/12/23 12:51:42;;;;;;;30.58;14.75;;;8.20;99.90;;;;;;5053914;28;20052;-55
2022/12/23 12:54:14;;;;;;;31.90;13.80;;;8.20;99.90;;;;;;5051290;28;20087;-54
2022/12/23 12:56:43;;;;;;;34.35;13.35;;;8.10;99.90;;;;;;5052074;28;20342;-55
2022/12/23 12:59:14;;;;;;;32.83;13.98;;;8.10;99.90;;;;;;5051995;28;20083;-51
2022/12/23 13:01:48;;;;;;;32.38;14.00;;;8.20;99.90;;;;;;5050917;28;20469;-54
2022/12/23 13:04:43;;;;;;;33.53;14.25;;;8.10;99.90;;;;;;5048612;28;20126;-54
2022/12/23 13:07:13;;;;;;;32.50;14.45;;;8.20;99.90;;;;;;4995591;28;20081;-52
2022/12/23 13:09:45;;;;;;;29.50;13.48;;;8.00;99.90;;;;;;5052409;28;20057;-53